createdAt,value
2023-05-08T00:01:05.235Z,23.40
2023-05-08T00:03:32.140Z,23.36
2023-05-08T00:05:59.383Z,23.43
2023-05-08T00:08:26.542Z,23.55
2023-05-08T00:10:53.501Z,23.66
2023-05-08T00:13:20.482Z,23.75
2023-05-08T00:15:47.737Z,23.77
2023-05-08T00:18:14.607Z,23.88
2023-05-08T00:20:42.037Z,23.80
2023-05-08T00:23:08.826Z,23.94
2023-05-08T00:25:35.837Z,24.02
2023-05-08T00:28:02.743Z,24.05
2023-05-08T00:32:21.730Z,25.48
2023-05-08T00:34:48.574Z,24.24
2023-05-08T00:37:15.316Z,24.00
2023-05-08T00:39:42.118Z,24.14
2023-05-08T00:42:09.412Z,24.14
2023-05-08T00:44:39.041Z,24.33
2023-05-08T00:47:06.935Z,24.26
2023-05-08T00:49:35.381Z,24.19
2023-05-08T00:52:02.730Z,24.16
2023-05-08T00:54:30.004Z,24.33
2023-05-08T00:56:57.597Z,24.33
2023-05-08T00:59:24.620Z,24.43
2023-05-08T01:01:51.478Z,24.32
2023-05-08T01:04:24.043Z,24.55
2023-05-08T01:06:50.967Z,24.49
2023-05-08T01:09:17.672Z,24.49
2023-05-08T01:12:03.077Z,24.52
2023-05-08T01:15:05.200Z,24.38
2023-05-08T01:17:50.660Z,24.23
2023-05-08T01:21:02.673Z,24.49
2023-05-08T01:23:48.528Z,24.42
2023-05-08T01:26:52.694Z,24.39
2023-05-08T01:29:35.827Z,24.30
2023-05-08T01:32:22.190Z,24.26
2023-05-08T01:35:03.386Z,24.32
2023-05-08T01:37:55.123Z,24.38
2023-05-08T01:40:22.682Z,24.39
2023-05-08T01:42:53.317Z,24.29
2023-05-08T01:45:26.396Z,24.24
2023-05-08T01:48:03.185Z,24.26
2023-05-08T01:50:35.416Z,24.21
2023-05-08T01:53:08.875Z,24.40
2023-05-08T01:55:37.020Z,24.35
2023-05-08T01:58:06.804Z,24.43
2023-05-08T02:00:33.535Z,24.29
2023-05-08T02:03:01.194Z,24.31
2023-05-08T02:05:28.196Z,24.43
2023-05-08T02:07:55.030Z,24.45
2023-05-08T02:10:22.384Z,24.62
2023-05-08T02:12:50.595Z,24.60
2023-05-08T02:15:17.420Z,24.61
2023-05-08T02:17:46.253Z,24.56
2023-05-08T02:20:14.561Z,24.50
2023-05-08T02:22:43.111Z,24.45
2023-05-08T02:25:13.908Z,24.74
2023-05-08T02:27:43.567Z,24.65
2023-05-08T02:30:14.354Z,24.79
2023-05-08T02:32:45.376Z,24.71
2023-05-08T02:35:16.644Z,24.76
2023-05-08T02:37:44.951Z,24.58
2023-05-08T02:40:12.746Z,24.62
2023-05-08T02:42:40.317Z,24.80
2023-05-08T02:45:08.252Z,24.65
2023-05-08T02:47:50.582Z,24.58
2023-05-08T02:50:59.947Z,24.43
2023-05-08T02:53:38.634Z,24.49
2023-05-08T02:56:10.686Z,24.75
2023-05-08T02:58:44.138Z,24.76
2023-05-08T03:01:16.520Z,24.65
2023-05-08T03:04:09.302Z,24.58
2023-05-08T03:06:40.558Z,24.57
2023-05-08T03:09:10.359Z,24.67
2023-05-08T03:11:40.349Z,24.59
2023-05-08T03:14:11.023Z,24.68
2023-05-08T03:16:39.172Z,24.54
2023-05-08T03:19:16.266Z,24.61
2023-05-08T03:21:43.164Z,24.73
2023-05-08T03:24:10.580Z,24.71
2023-05-08T03:26:38.001Z,24.62
2023-05-08T03:29:04.797Z,24.57
2023-05-08T03:31:32.919Z,24.64
2023-05-08T03:34:00.575Z,24.76
2023-05-08T03:36:28.361Z,24.77
2023-05-08T03:38:55.287Z,24.61
2023-05-08T03:41:24.796Z,24.60
2023-05-08T03:43:52.053Z,24.73
2023-05-08T03:46:19.007Z,24.61
2023-05-08T03:48:45.773Z,24.57
2023-05-08T03:51:12.990Z,24.64
2023-05-08T03:53:40.547Z,24.79
2023-05-08T03:56:07.715Z,24.87
2023-05-08T03:58:46.371Z,25.01
2023-05-08T04:01:36.035Z,24.98
2023-05-08T04:04:03.112Z,25.01
2023-05-08T04:06:48.699Z,24.98
2023-05-08T04:09:24.389Z,24.90
2023-05-08T04:12:04.777Z,24.78
2023-05-08T04:14:36.247Z,25.03
2023-05-08T04:17:05.569Z,24.83
2023-05-08T04:19:33.640Z,24.89
2023-05-08T04:22:05.354Z,25.06
2023-05-08T04:24:34.884Z,25.29
2023-05-08T04:27:02.380Z,25.22
2023-05-08T04:29:30.517Z,25.32
2023-05-08T04:31:57.546Z,25.45
2023-05-08T04:34:24.964Z,25.34
2023-05-08T04:36:52.249Z,25.22
2023-05-08T04:39:19.599Z,25.19
2023-05-08T04:41:48.300Z,25.31
2023-05-08T04:44:15.959Z,25.27
2023-05-08T04:46:42.919Z,25.45
2023-05-08T04:49:09.790Z,25.68
2023-05-08T04:51:36.655Z,25.36
2023-05-08T04:54:03.536Z,24.84
2023-05-08T04:56:31.416Z,24.66
2023-05-08T04:58:58.286Z,24.86
2023-05-08T05:01:25.460Z,24.96
2023-05-08T05:03:52.621Z,24.68
2023-05-08T05:06:20.320Z,24.85
2023-05-08T05:08:47.672Z,24.75
2023-05-08T05:11:15.552Z,24.33
2023-05-08T05:13:42.897Z,24.26
2023-05-08T05:16:10.032Z,24.38
2023-05-08T05:18:37.431Z,24.25
2023-05-08T05:21:04.261Z,24.44
2023-05-08T05:23:31.812Z,24.75
2023-05-08T05:26:00.112Z,24.51
2023-05-08T05:28:27.787Z,24.46
2023-05-08T05:30:54.718Z,24.13
2023-05-08T05:33:21.644Z,23.62
2023-05-08T05:35:48.748Z,23.49
2023-05-08T05:38:15.638Z,23.68
2023-05-08T05:40:42.789Z,23.25
2023-05-08T05:43:09.657Z,23.21
2023-05-08T05:45:36.683Z,23.29
2023-05-08T05:48:04.370Z,23.23
2023-05-08T05:50:32.108Z,23.12
2023-05-08T05:52:59.245Z,22.79
2023-05-08T05:55:26.311Z,22.71
2023-05-08T05:57:53.569Z,22.07
2023-05-08T06:00:21.380Z,22.00
2023-05-08T06:02:50.212Z,21.62
2023-05-08T06:05:19.216Z,21.47
2023-05-08T06:07:46.295Z,21.17
2023-05-08T06:10:13.240Z,21.23
2023-05-08T06:12:40.903Z,20.90
2023-05-08T06:15:09.278Z,20.94
2023-05-08T06:17:36.416Z,20.58
2023-05-08T06:20:03.841Z,20.52
2023-05-08T06:22:31.230Z,20.30
2023-05-08T06:24:58.080Z,20.16
2023-05-08T06:27:25.502Z,19.95
2023-05-08T06:29:55.161Z,20.47
2023-05-08T06:32:22.079Z,20.04
2023-05-08T06:34:49.461Z,19.81
2023-05-08T06:37:16.177Z,19.78
2023-05-08T06:39:43.121Z,19.84
2023-05-08T06:42:09.973Z,19.89
2023-05-08T06:44:40.764Z,20.38
2023-05-08T06:47:08.068Z,20.71
2023-05-08T06:49:36.142Z,20.64
2023-05-08T06:52:03.125Z,20.39
2023-05-08T06:54:30.236Z,20.10
2023-05-08T06:56:57.269Z,20.04
2023-05-08T06:59:24.360Z,19.71
2023-05-08T07:01:51.306Z,19.33
2023-05-08T07:04:18.261Z,19.53
2023-05-08T07:06:45.090Z,19.68
2023-05-08T07:09:12.528Z,19.48
2023-05-08T07:11:39.594Z,19.55
2023-05-08T07:14:06.477Z,19.19
2023-05-08T07:16:33.606Z,19.35
2023-05-08T07:19:00.646Z,18.70
2023-05-08T07:21:28.983Z,18.81
2023-05-08T07:23:55.898Z,18.71
2023-05-08T07:26:22.869Z,19.36
2023-05-08T07:28:50.976Z,19.60
2023-05-08T07:31:17.931Z,19.15
2023-05-08T07:33:46.153Z,18.58
2023-05-08T07:36:13.440Z,18.56
2023-05-08T07:38:40.594Z,18.52
2023-05-08T07:41:07.892Z,19.26
2023-05-08T07:43:35.188Z,18.77
2023-05-08T07:46:02.298Z,19.24
2023-05-08T07:48:30.645Z,18.66
2023-05-08T07:50:57.606Z,18.60
2023-05-08T07:53:24.635Z,19.53
2023-05-08T07:55:52.258Z,18.85
2023-05-08T07:58:19.343Z,18.73
2023-05-08T08:00:46.388Z,19.03
2023-05-08T08:03:13.455Z,19.15
2023-05-08T08:05:41.571Z,19.33
2023-05-08T08:08:08.718Z,19.44
2023-05-08T08:10:35.629Z,19.82
2023-05-08T08:13:02.793Z,19.58
2023-05-08T08:15:30.217Z,19.47
2023-05-08T08:17:57.706Z,19.14
2023-05-08T08:20:24.591Z,19.15
2023-05-08T08:22:51.840Z,19.19
2023-05-08T08:25:18.709Z,18.43
2023-05-08T08:27:45.880Z,18.59
2023-05-08T08:30:18.230Z,18.61
2023-05-08T08:32:46.040Z,19.05
2023-05-08T08:35:13.387Z,19.13
2023-05-08T08:37:41.232Z,19.27
2023-05-08T08:40:08.832Z,19.47
2023-05-08T08:42:35.794Z,19.11
2023-05-08T08:45:03.515Z,18.88
2023-05-08T08:47:36.969Z,18.69
2023-05-08T08:50:04.791Z,18.91
2023-05-08T08:52:51.749Z,18.82
2023-05-08T08:55:18.608Z,18.85
2023-05-08T08:57:54.511Z,19.19
2023-05-08T09:00:22.833Z,18.59
2023-05-08T09:02:49.900Z,19.02
2023-05-08T09:05:17.580Z,18.95
2023-05-08T09:07:44.851Z,18.66
2023-05-08T09:10:15.010Z,18.31
2023-05-08T09:12:45.239Z,18.29
2023-05-08T09:15:12.764Z,18.40
2023-05-08T09:17:40.612Z,18.06
2023-05-08T09:20:10.302Z,17.91
2023-05-08T09:22:38.881Z,17.69
2023-05-08T09:25:06.569Z,17.82
2023-05-08T09:27:35.897Z,17.53
2023-05-08T09:30:07.696Z,17.46
2023-05-08T09:32:36.794Z,17.47
2023-05-08T09:35:04.713Z,17.28
2023-05-08T09:37:31.691Z,17.46
2023-05-08T09:40:15.302Z,17.34
2023-05-08T09:42:43.253Z,17.53
2023-05-08T09:45:11.014Z,17.58
2023-05-08T09:47:38.958Z,17.56
2023-05-08T09:50:10.589Z,17.84
2023-05-08T09:52:38.175Z,17.79
2023-05-08T09:55:10.011Z,17.49
2023-05-08T09:57:38.818Z,17.54
2023-05-08T10:00:12.346Z,17.89
2023-05-08T10:02:41.443Z,17.74
2023-05-08T10:05:46.773Z,18.10
2023-05-08T10:08:21.475Z,18.21
2023-05-08T10:10:48.614Z,18.22
2023-05-08T10:13:15.782Z,18.10
2023-05-08T10:15:43.139Z,17.63
2023-05-08T10:18:14.035Z,17.71
2023-05-08T10:20:43.706Z,17.65
2023-05-08T10:23:14.077Z,17.62
2023-05-08T10:25:44.437Z,17.48
2023-05-08T10:28:17.491Z,17.85
2023-05-08T10:30:47.979Z,17.88
2023-05-08T10:33:17.472Z,18.66
2023-05-08T10:35:44.954Z,18.44
2023-05-08T10:38:11.790Z,18.26
2023-05-08T10:40:38.870Z,18.11
2023-05-08T10:43:06.754Z,17.99
2023-05-08T10:45:33.706Z,17.95
2023-05-08T10:48:06.901Z,18.05
2023-05-08T10:50:43.979Z,18.48
2023-05-08T10:53:40.518Z,18.75
2023-05-08T10:56:07.468Z,18.40
2023-05-08T10:58:41.182Z,18.21
2023-05-08T11:01:08.374Z,18.02
2023-05-08T11:03:55.037Z,17.72
2023-05-08T11:06:43.301Z,17.69
2023-05-08T11:09:15.448Z,17.59
2023-05-08T11:11:45.291Z,17.55
2023-05-08T11:14:13.671Z,17.73
2023-05-08T11:16:52.982Z,17.62
2023-05-08T11:19:24.279Z,17.79
2023-05-08T11:22:10.427Z,17.68
2023-05-08T11:24:57.644Z,18.23
2023-05-08T11:27:39.073Z,18.71
2023-05-08T11:30:35.575Z,18.46
2023-05-08T11:33:02.605Z,18.88
2023-05-08T11:35:53.452Z,19.07
2023-05-08T11:38:27.765Z,18.82
2023-05-08T11:40:55.630Z,18.26
2023-05-08T11:43:37.851Z,18.31
2023-05-08T11:46:07.873Z,18.52
2023-05-08T11:48:35.268Z,18.19
2023-05-08T11:51:02.739Z,17.89
2023-05-08T11:53:30.868Z,17.98
2023-05-08T11:55:58.696Z,17.93
2023-05-08T11:58:25.649Z,17.86
2023-05-08T12:00:52.704Z,17.62
2023-05-08T12:03:21.686Z,17.68
2023-05-08T12:05:49.244Z,17.65
2023-05-08T12:08:17.550Z,17.42
2023-05-08T12:10:51.507Z,17.16
2023-05-08T12:13:29.089Z,17.18
2023-05-08T12:15:58.246Z,17.53
2023-05-08T12:18:26.258Z,17.74
2023-05-08T12:20:56.511Z,17.70
2023-05-08T12:23:25.343Z,17.47
2023-05-08T12:25:55.682Z,17.15
2023-05-08T12:28:22.627Z,17.71
2023-05-08T12:30:49.640Z,17.58
2023-05-08T12:33:16.718Z,18.05
2023-05-08T12:35:43.952Z,17.82
2023-05-08T12:38:11.638Z,17.68
2023-05-08T12:40:45.892Z,17.38
2023-05-08T12:43:12.916Z,17.02
2023-05-08T12:45:41.371Z,17.15
2023-05-08T12:49:49.453Z,18.06
2023-05-08T12:52:18.375Z,17.38
2023-05-08T12:54:49.486Z,17.34
2023-05-08T12:57:17.674Z,16.82
2023-05-08T12:59:45.090Z,16.81
2023-05-08T13:02:23.851Z,16.71
2023-05-08T13:04:55.555Z,16.49
2023-05-08T13:07:22.893Z,16.59
2023-05-08T13:10:01.246Z,16.59
2023-05-08T13:12:28.234Z,16.74
2023-05-08T13:14:55.252Z,16.13
2023-05-08T13:17:22.185Z,16.61
2023-05-08T13:19:49.713Z,16.98
2023-05-08T13:22:16.577Z,16.65
2023-05-08T13:24:43.526Z,16.84
2023-05-08T13:27:10.439Z,16.75
2023-05-08T13:29:37.708Z,16.64
2023-05-08T13:32:04.742Z,16.51
2023-05-08T13:34:31.691Z,16.33
2023-05-08T13:36:58.766Z,16.33
2023-05-08T13:39:25.767Z,16.67
2023-05-08T13:41:52.646Z,16.44
2023-05-08T13:44:19.710Z,16.40
2023-05-08T13:46:47.139Z,16.37
2023-05-08T13:49:14.307Z,16.51
2023-05-08T13:51:42.678Z,16.69
2023-05-08T13:54:12.748Z,16.75
2023-05-08T13:56:40.425Z,16.76
2023-05-08T13:59:07.750Z,16.72
2023-05-08T14:01:34.642Z,16.84
2023-05-08T14:04:02.153Z,16.88
2023-05-08T14:06:29.674Z,16.67
2023-05-08T14:08:57.294Z,16.93
2023-05-08T14:11:24.707Z,16.86
2023-05-08T14:13:51.668Z,16.89
2023-05-08T14:16:18.838Z,16.94
2023-05-08T14:18:45.911Z,16.70
2023-05-08T14:21:12.816Z,16.94
2023-05-08T14:23:39.824Z,16.72
2023-05-08T14:26:06.908Z,16.92
2023-05-08T14:28:33.942Z,16.95
2023-05-08T14:31:00.969Z,17.00
2023-05-08T14:33:27.954Z,16.80
2023-05-08T14:35:55.012Z,16.82
2023-05-08T14:38:22.004Z,17.01
2023-05-08T14:40:51.991Z,16.64
2023-05-08T14:43:18.907Z,16.95
2023-05-08T14:45:45.822Z,16.83
2023-05-08T14:48:12.813Z,16.67
2023-05-08T14:50:39.712Z,16.89
2023-05-08T14:53:07.676Z,16.92
2023-05-08T14:55:35.018Z,17.09
2023-05-08T14:58:02.328Z,17.53
2023-05-08T15:00:29.291Z,17.51
2023-05-08T15:02:56.396Z,17.23
2023-05-08T15:05:23.651Z,17.09
2023-05-08T15:07:51.055Z,17.18
2023-05-08T15:10:18.066Z,17.44
2023-05-08T15:12:44.997Z,17.40
2023-05-08T15:15:12.309Z,17.10
2023-05-08T15:17:41.658Z,17.36
2023-05-08T15:20:09.540Z,17.34
2023-05-08T15:22:37.250Z,17.67
2023-05-08T15:25:05.587Z,17.47
2023-05-08T15:27:32.659Z,17.48
2023-05-08T15:29:59.766Z,17.34
2023-05-08T15:32:26.813Z,17.18
2023-05-08T15:34:53.884Z,16.95
2023-05-08T15:37:20.836Z,17.11
2023-05-08T15:39:47.912Z,17.20
2023-05-08T15:42:14.895Z,17.19
2023-05-08T15:44:54.763Z,17.25
2023-05-08T15:47:23.534Z,17.43
2023-05-08T15:49:51.156Z,17.29
2023-05-08T15:52:19.915Z,17.01
2023-05-08T15:54:47.452Z,17.20
2023-05-08T15:57:14.399Z,17.14
2023-05-08T15:59:41.737Z,16.97
2023-05-08T16:02:08.790Z,16.86
2023-05-08T16:11:48.596Z,17.12
2023-05-08T16:14:16.452Z,17.15
2023-05-08T16:16:43.975Z,17.04
2023-05-08T16:19:10.981Z,17.16
2023-05-08T16:21:38.083Z,17.25
2023-05-08T16:24:05.515Z,17.32
2023-05-08T16:26:33.148Z,17.51
2023-05-08T16:29:00.071Z,17.21
2023-05-08T16:31:27.170Z,17.19
2023-05-08T16:33:54.258Z,17.35
2023-05-08T16:36:21.309Z,17.36
2023-05-08T16:38:48.224Z,17.55
2023-05-08T16:41:15.190Z,17.57
2023-05-08T16:43:42.120Z,17.55
2023-05-08T16:46:09.197Z,17.67
2023-05-08T16:48:36.608Z,17.64
2023-05-08T16:51:03.431Z,17.75
2023-05-08T16:53:31.920Z,18.02
2023-05-08T16:55:58.853Z,18.09
2023-05-08T16:58:27.172Z,18.09
2023-05-08T17:00:54.023Z,18.18
2023-05-08T17:03:21.191Z,18.36
2023-05-08T17:05:48.636Z,18.29
2023-05-08T17:08:15.801Z,18.30
2023-05-08T17:10:42.838Z,18.23
2023-05-08T17:13:09.875Z,18.32
2023-05-08T17:15:37.034Z,18.31
2023-05-08T17:18:04.128Z,18.50
2023-05-08T17:20:31.331Z,18.59
2023-05-08T17:22:58.188Z,18.39
2023-05-08T17:25:25.333Z,18.36
2023-05-08T17:27:52.423Z,18.32
2023-05-08T17:30:19.315Z,18.53
2023-05-08T17:32:51.253Z,18.54
2023-05-08T17:35:18.686Z,18.67
2023-05-08T17:37:45.798Z,18.64
2023-05-08T17:40:13.181Z,18.59
2023-05-08T17:42:40.333Z,18.62
2023-05-08T17:45:07.631Z,18.80
2023-05-08T17:47:34.646Z,18.83
2023-05-08T17:50:01.549Z,18.89
2023-05-08T17:52:28.497Z,18.90
2023-05-08T17:54:55.315Z,18.92
2023-05-08T17:57:22.092Z,19.06
2023-05-08T17:59:48.928Z,19.06
2023-05-08T18:02:15.715Z,18.88
2023-05-08T18:04:42.652Z,19.01
2023-05-08T18:07:10.817Z,19.05
2023-05-08T18:09:37.734Z,19.25
2023-05-08T18:12:05.816Z,19.11
2023-05-08T18:14:32.880Z,19.08
2023-05-08T18:17:00.014Z,19.09
2023-05-08T18:19:26.892Z,19.08
2023-05-08T18:21:53.978Z,19.20
2023-05-08T18:24:20.778Z,19.09
2023-05-08T18:26:48.569Z,19.20
2023-05-08T18:29:16.643Z,19.13
2023-05-08T18:31:43.559Z,19.24
2023-05-08T18:34:10.614Z,19.33
2023-05-08T18:36:37.640Z,19.39
2023-05-08T18:39:04.583Z,19.38
2023-05-08T18:41:32.158Z,19.50
2023-05-08T18:44:05.272Z,19.54
2023-05-08T18:46:32.394Z,19.58
2023-05-08T18:48:59.324Z,19.72
2023-05-08T18:51:26.473Z,19.82
2023-05-08T18:53:53.549Z,19.76
2023-05-08T18:56:20.883Z,19.94
2023-05-08T18:58:47.753Z,20.00
2023-05-08T19:01:19.320Z,20.02
2023-05-08T19:03:47.665Z,20.09
2023-05-08T19:06:14.703Z,20.15
2023-05-08T19:08:42.030Z,20.24
2023-05-08T19:11:09.832Z,20.20
2023-05-08T19:13:37.098Z,20.25
2023-05-08T19:16:04.703Z,20.41
2023-05-08T19:18:32.979Z,20.40
2023-05-08T19:21:01.484Z,20.44
2023-05-08T19:23:28.568Z,20.48
2023-05-08T19:25:55.430Z,20.64
2023-05-08T19:28:22.380Z,20.58
2023-05-08T19:30:49.162Z,20.74
2023-05-08T19:33:20.034Z,20.82
2023-05-08T19:35:47.542Z,20.85
2023-05-08T19:38:14.790Z,20.93
2023-05-08T19:40:55.751Z,21.07
2023-05-08T19:43:27.174Z,21.02
2023-05-08T19:45:54.716Z,21.20
2023-05-08T19:48:22.245Z,21.14
2023-05-08T19:50:49.938Z,21.25
2023-05-08T19:53:17.809Z,21.30
2023-05-08T19:55:44.806Z,21.36
2023-05-08T19:58:14.171Z,21.45
2023-05-08T20:00:41.024Z,21.48
2023-05-08T20:03:07.956Z,21.49
2023-05-08T20:05:35.013Z,21.50
2023-05-08T20:08:02.182Z,21.57
2023-05-08T20:10:29.420Z,21.54
2023-05-08T20:12:56.281Z,21.61
2023-05-08T20:15:23.229Z,21.56
2023-05-08T20:17:50.407Z,21.68
2023-05-08T20:20:17.411Z,21.67
2023-05-08T20:22:44.676Z,21.69
2023-05-08T20:25:11.607Z,21.65
2023-05-08T20:27:38.971Z,21.66
2023-05-08T20:30:06.232Z,21.82
2023-05-08T20:32:33.526Z,21.69
2023-05-08T20:35:02.640Z,21.69
2023-05-08T20:37:29.668Z,21.85
2023-05-08T20:39:57.572Z,21.89
2023-05-08T20:42:24.525Z,22.03
2023-05-08T20:44:51.359Z,22.01
2023-05-08T20:47:18.075Z,22.00
2023-05-08T20:49:44.864Z,22.08
2023-05-08T20:52:11.585Z,22.03
2023-05-08T20:54:38.335Z,22.12
2023-05-08T20:57:05.078Z,22.29
2023-05-08T20:59:32.395Z,22.23
2023-05-08T21:01:59.481Z,22.16
2023-05-08T21:04:26.650Z,22.28
2023-05-08T21:06:53.313Z,22.36
2023-05-08T21:09:20.307Z,22.51
2023-05-08T21:11:46.997Z,22.49
2023-05-08T21:14:13.893Z,22.48
2023-05-08T21:16:40.741Z,22.46
2023-05-08T21:19:09.177Z,22.65
2023-05-08T21:21:35.871Z,22.69
2023-05-08T21:24:03.367Z,22.68
2023-05-08T21:26:30.148Z,22.78
2023-05-08T21:28:58.036Z,22.62
2023-05-08T21:31:24.788Z,22.72
2023-05-08T21:33:51.455Z,22.65
2023-05-08T21:36:18.131Z,22.54
2023-05-08T21:38:44.860Z,22.58
2023-05-08T21:41:11.500Z,22.69
2023-05-08T21:43:38.337Z,22.71
2023-05-08T21:46:05.768Z,22.72
2023-05-08T21:48:33.347Z,22.83
2023-05-08T21:51:00.003Z,22.93
2023-05-08T21:53:26.725Z,22.95
2023-05-08T21:55:53.504Z,23.13
2023-05-08T21:58:21.660Z,23.34
2023-05-08T22:00:48.337Z,23.50
2023-05-08T22:03:15.304Z,23.40
2023-05-08T22:05:42.182Z,23.53
2023-05-08T22:08:09.382Z,23.54
2023-05-08T22:10:36.262Z,23.52
2023-05-08T22:13:03.085Z,23.54
2023-05-08T22:15:31.032Z,23.58
2023-05-08T22:17:58.356Z,23.56
2023-05-08T22:20:25.237Z,23.46
2023-05-08T22:22:51.968Z,23.59
2023-05-08T22:25:20.928Z,23.72
2023-05-08T22:27:47.855Z,23.87
2023-05-08T22:30:14.822Z,23.94
2023-05-08T22:32:42.085Z,23.88
2023-05-08T22:35:08.842Z,23.99
2023-05-08T22:37:36.262Z,23.92
2023-05-08T22:40:03.457Z,24.03
2023-05-08T22:42:30.412Z,24.21
2023-05-08T22:44:57.304Z,24.31
2023-05-08T22:47:25.280Z,24.36
2023-05-08T22:49:52.015Z,24.39
2023-05-08T22:52:18.676Z,24.48
2023-05-08T22:54:45.553Z,24.64
2023-05-08T22:57:13.563Z,24.64
2023-05-08T22:59:40.400Z,24.69
2023-05-08T23:02:07.237Z,24.92
2023-05-08T23:04:34.445Z,24.98
2023-05-08T23:07:01.536Z,25.20
2023-05-08T23:09:30.108Z,25.42
2023-05-08T23:11:56.799Z,25.07
2023-05-08T23:14:23.480Z,25.29
2023-05-08T23:16:50.482Z,25.46
2023-05-08T23:19:17.157Z,25.39
2023-05-08T23:21:43.882Z,25.52
2023-05-08T23:24:10.526Z,25.70
2023-05-08T23:26:37.334Z,25.77
2023-05-08T23:29:03.891Z,25.92
2023-05-08T23:31:31.208Z,25.87
2023-05-08T23:33:57.901Z,26.06
2023-05-08T23:36:24.552Z,26.09
2023-05-08T23:38:51.113Z,26.14
2023-05-08T23:41:18.071Z,26.23
2023-05-08T23:43:44.628Z,26.41
2023-05-08T23:46:11.310Z,26.56
2023-05-08T23:48:37.957Z,26.61
2023-05-08T23:51:04.640Z,26.74
2023-05-08T23:53:31.983Z,27.01
2023-05-08T23:55:58.612Z,27.07
2023-05-08T23:58:25.680Z,27.13
